createdAt,value
2022-09-23T00:00:06.686Z,998.19
2022-09-23T00:01:06.607Z,998.11
2022-09-23T00:02:06.718Z,998.11
2022-09-23T00:03:06.560Z,998.18
2022-09-23T00:04:06.577Z,998.15
2022-09-23T00:05:06.590Z,998.12
2022-09-23T00:06:06.544Z,998.12
2022-09-23T00:07:06.535Z,998.09
2022-09-23T00:08:06.542Z,998.13
2022-09-23T00:09:06.650Z,998.08
2022-09-23T00:10:06.526Z,998.11
2022-09-23T00:11:06.567Z,998.11
2022-09-23T00:12:09.063Z,998.18
2022-09-23T00:13:06.499Z,998.13
2022-09-23T00:14:06.499Z,998.06
2022-09-23T00:15:06.481Z,998.06
2022-09-23T00:16:06.484Z,998.09
2022-09-23T00:17:06.577Z,998.13
2022-09-23T00:18:06.468Z,998.07
2022-09-23T00:19:06.467Z,998.05
2022-09-23T00:20:06.479Z,998.05
2022-09-23T00:21:06.474Z,998.07
2022-09-23T00:22:06.457Z,997.96
2022-09-23T00:23:06.442Z,997.98
2022-09-23T00:24:06.567Z,998.01
2022-09-23T00:25:06.472Z,997.98
2022-09-23T00:26:08.163Z,997.99
2022-09-23T00:27:06.416Z,997.96
2022-09-23T00:28:06.406Z,997.92
2022-09-23T00:29:06.400Z,997.92
2022-09-23T00:30:06.386Z,997.96
2022-09-23T00:31:06.476Z,997.95
2022-09-23T00:32:06.971Z,997.99
2022-09-23T00:33:06.364Z,997.92
2022-09-23T00:34:06.367Z,997.99
2022-09-23T00:35:06.352Z,997.95
2022-09-23T00:36:06.356Z,997.99
2022-09-23T00:37:07.190Z,997.87
2022-09-23T00:38:06.355Z,998.05
2022-09-23T00:39:06.469Z,997.93
2022-09-23T00:40:06.402Z,997.84
2022-09-23T00:41:06.323Z,997.95
2022-09-23T00:42:06.316Z,997.92
2022-09-23T00:43:06.321Z,997.86
2022-09-23T00:44:06.604Z,997.78
2022-09-23T00:45:06.286Z,997.79
2022-09-23T00:46:06.402Z,997.81
2022-09-23T00:47:06.272Z,997.80
2022-09-23T00:48:06.305Z,997.77
2022-09-23T00:49:06.589Z,997.70
2022-09-23T00:50:06.270Z,997.73
2022-09-23T00:51:06.251Z,997.74
2022-09-23T00:52:06.245Z,997.75
2022-09-23T00:53:06.259Z,997.80
2022-09-23T00:54:06.438Z,997.77
2022-09-23T00:55:06.270Z,997.74
2022-09-23T00:56:06.221Z,997.75
2022-09-23T00:57:06.219Z,997.69
2022-09-23T00:58:06.204Z,997.77
2022-09-23T00:59:06.206Z,997.76
2022-09-23T01:00:06.366Z,997.74
2022-09-23T01:01:06.271Z,997.72
2022-09-23T01:02:06.207Z,997.75
2022-09-23T01:03:06.171Z,997.73
2022-09-23T01:04:06.179Z,997.73
2022-09-23T01:05:06.166Z,997.79
2022-09-23T01:06:06.586Z,997.66
2022-09-23T01:07:06.172Z,997.71
2022-09-23T01:08:06.146Z,997.69
2022-09-23T01:09:06.287Z,997.69
2022-09-23T01:10:06.141Z,997.65
2022-09-23T01:11:06.133Z,997.72
2022-09-23T01:12:06.141Z,997.69
2022-09-23T01:13:06.112Z,997.68
2022-09-23T01:14:06.119Z,997.71
2022-09-23T01:15:06.097Z,997.66
2022-09-23T01:16:06.577Z,997.69
2022-09-23T01:17:06.174Z,997.66
2022-09-23T01:18:06.361Z,997.74
2022-09-23T01:19:06.081Z,997.68
2022-09-23T01:20:06.066Z,997.68
2022-09-23T01:21:06.060Z,997.66
2022-09-23T01:22:07.164Z,997.66
2022-09-23T01:23:06.043Z,997.65
2022-09-23T01:24:06.171Z,997.68
2022-09-23T01:25:06.062Z,997.65
2022-09-23T01:26:06.024Z,997.67
2022-09-23T01:27:06.020Z,997.62
2022-09-23T01:28:06.015Z,997.66
2022-09-23T01:29:06.009Z,997.66
2022-09-23T01:30:06.010Z,997.76
2022-09-23T01:31:06.088Z,997.72
2022-09-23T01:32:05.983Z,997.73
2022-09-23T01:33:05.976Z,997.70
2022-09-23T01:34:06.020Z,997.69
2022-09-23T01:35:07.088Z,997.70
2022-09-23T01:36:05.967Z,997.68
2022-09-23T01:37:05.957Z,997.67
2022-09-23T01:38:05.945Z,997.71
2022-09-23T01:39:06.000Z,997.68
2022-09-23T01:40:06.862Z,997.68
2022-09-23T01:41:05.965Z,997.65
2022-09-23T01:42:06.368Z,997.69
2022-09-23T01:43:06.055Z,997.65
2022-09-23T01:44:05.913Z,997.68
2022-09-23T01:45:05.974Z,997.68
2022-09-23T01:46:05.907Z,997.70
2022-09-23T01:47:05.881Z,997.64
2022-09-23T01:48:05.981Z,997.65
2022-09-23T01:49:05.978Z,997.64
2022-09-23T01:50:05.861Z,997.62
2022-09-23T01:51:05.859Z,997.61
2022-09-23T01:52:05.855Z,997.62
2022-09-23T01:53:05.852Z,997.57
2022-09-23T01:54:05.863Z,997.61
2022-09-23T01:55:05.837Z,997.57
2022-09-23T01:56:05.824Z,997.57
2022-09-23T01:57:05.833Z,997.59
2022-09-23T01:58:05.808Z,997.57
2022-09-23T01:59:06.256Z,997.55
2022-09-23T02:00:05.790Z,997.62
2022-09-23T02:01:06.005Z,997.53
2022-09-23T02:02:05.876Z,997.52
2022-09-23T02:03:05.780Z,997.48
2022-09-23T02:04:05.921Z,997.51
2022-09-23T02:05:05.768Z,997.48
2022-09-23T02:06:05.763Z,997.49
2022-09-23T02:07:05.758Z,997.41
2022-09-23T02:08:06.326Z,997.53
2022-09-23T02:09:05.742Z,997.51
2022-09-23T02:10:13.320Z,997.52
2022-09-23T02:11:05.726Z,997.50
2022-09-23T02:12:05.730Z,997.49
2022-09-23T02:13:05.737Z,997.51
2022-09-23T02:14:05.723Z,997.50
2022-09-23T02:15:05.688Z,997.52
2022-09-23T02:16:05.688Z,997.49
2022-09-23T02:17:05.682Z,997.46
2022-09-23T02:18:05.675Z,997.45
2022-09-23T02:19:05.718Z,997.45
2022-09-23T02:20:05.680Z,997.48
2022-09-23T02:21:05.664Z,997.49
2022-09-23T02:22:06.065Z,997.43
2022-09-23T02:23:05.635Z,997.45
2022-09-23T02:24:05.648Z,997.40
2022-09-23T02:25:05.622Z,997.41
2022-09-23T02:26:05.652Z,997.37
2022-09-23T02:27:05.622Z,997.41
2022-09-23T02:28:05.608Z,997.34
2022-09-23T02:29:05.938Z,997.41
2022-09-23T02:30:05.590Z,997.39
2022-09-23T02:31:05.590Z,997.34
2022-09-23T02:32:05.640Z,997.32
2022-09-23T02:33:05.578Z,997.40
2022-09-23T02:34:05.590Z,997.33
2022-09-23T02:35:05.568Z,997.35
2022-09-23T02:36:05.561Z,997.36
2022-09-23T02:37:05.547Z,997.36
2022-09-23T02:38:05.542Z,997.35
2022-09-23T02:39:05.540Z,997.37
2022-09-23T02:40:05.588Z,997.37
2022-09-23T02:41:05.545Z,997.32
2022-09-23T02:42:05.524Z,997.37
2022-09-23T02:43:05.518Z,997.42
2022-09-23T02:44:05.506Z,997.36
2022-09-23T02:45:05.541Z,997.37
2022-09-23T02:46:05.539Z,997.40
2022-09-23T02:47:05.513Z,997.29
2022-09-23T02:48:05.475Z,997.32
2022-09-23T02:49:05.463Z,997.33
2022-09-23T02:50:05.467Z,997.30
2022-09-23T02:51:05.492Z,997.28
2022-09-23T02:52:05.474Z,997.30
2022-09-23T02:53:05.446Z,997.30
2022-09-23T02:54:05.498Z,997.27
2022-09-23T02:55:05.440Z,997.34
2022-09-23T02:56:05.426Z,997.35
2022-09-23T02:57:05.437Z,997.35
2022-09-23T02:58:05.415Z,997.38
2022-09-23T02:59:05.449Z,997.38
2022-09-23T03:00:05.407Z,997.35
2022-09-23T03:01:05.455Z,997.31
2022-09-23T03:02:05.589Z,997.26
2022-09-23T03:03:05.434Z,997.31
2022-09-23T03:04:05.368Z,997.26
2022-09-23T03:05:05.377Z,997.29
2022-09-23T03:06:05.361Z,997.29
2022-09-23T03:07:05.346Z,997.28
2022-09-23T03:08:05.373Z,997.21
2022-09-23T03:09:05.580Z,997.25
2022-09-23T03:10:05.327Z,997.22
2022-09-23T03:11:05.338Z,997.16
2022-09-23T03:12:05.318Z,997.09
2022-09-23T03:13:05.315Z,997.11
2022-09-23T03:14:05.749Z,997.08
2022-09-23T03:15:05.293Z,997.07
2022-09-23T03:16:05.395Z,997.01
2022-09-23T03:17:05.325Z,997.06
2022-09-23T03:18:05.583Z,997.06
2022-09-23T03:19:05.274Z,997.08
2022-09-23T03:20:06.061Z,997.11
2022-09-23T03:21:05.252Z,997.10
2022-09-23T03:22:05.252Z,997.09
2022-09-23T03:23:05.244Z,997.10
2022-09-23T03:24:05.311Z,997.07
2022-09-23T03:25:05.251Z,997.06
2022-09-23T03:26:05.231Z,997.05
2022-09-23T03:27:05.211Z,997.12
2022-09-23T03:28:05.212Z,997.12
2022-09-23T03:29:05.198Z,997.12
2022-09-23T03:30:05.251Z,997.08
2022-09-23T03:31:05.762Z,997.10
2022-09-23T03:32:05.233Z,997.09
2022-09-23T03:33:05.215Z,997.05
2022-09-23T03:34:05.167Z,997.04
2022-09-23T03:35:05.193Z,997.06
2022-09-23T03:36:05.156Z,997.05
2022-09-23T03:37:05.196Z,996.97
2022-09-23T03:38:05.149Z,997.01
2022-09-23T03:39:05.273Z,996.96
2022-09-23T03:40:06.421Z,996.97
2022-09-23T03:41:05.124Z,996.94
2022-09-23T03:42:05.114Z,996.92
2022-09-23T03:43:05.146Z,996.98
2022-09-23T03:44:05.105Z,996.97
2022-09-23T03:45:05.101Z,996.94
2022-09-23T03:46:05.868Z,996.97
2022-09-23T03:47:05.079Z,996.94
2022-09-23T03:48:05.073Z,996.90
2022-09-23T03:49:05.190Z,996.88
2022-09-23T03:50:05.067Z,996.93
2022-09-23T03:51:05.241Z,996.85
2022-09-23T03:52:05.054Z,996.87
2022-09-23T03:53:05.121Z,996.90
2022-09-23T03:54:05.036Z,996.85
2022-09-23T03:55:05.042Z,996.88
2022-09-23T03:56:05.026Z,996.88
2022-09-23T03:57:05.120Z,996.91
2022-09-23T03:58:05.024Z,996.88
2022-09-23T03:59:05.046Z,996.86
2022-09-23T04:00:05.009Z,996.95
2022-09-23T04:01:05.178Z,996.91
2022-09-23T04:02:05.118Z,996.92
2022-09-23T04:03:09.505Z,996.89
2022-09-23T04:04:06.545Z,996.89
2022-09-23T04:05:04.993Z,996.84
2022-09-23T04:06:04.961Z,996.84
2022-09-23T04:07:04.952Z,996.85
2022-09-23T04:08:05.400Z,996.79
2022-09-23T04:09:04.951Z,996.81
2022-09-23T04:10:05.056Z,996.81
2022-09-23T04:11:04.927Z,996.78
2022-09-23T04:12:04.922Z,996.75
2022-09-23T04:13:04.937Z,996.78
2022-09-23T04:14:04.919Z,996.78
2022-09-23T04:15:04.899Z,996.77
2022-09-23T04:16:04.968Z,996.76
2022-09-23T04:17:05.333Z,996.75
2022-09-23T04:18:06.030Z,996.72
2022-09-23T04:19:05.195Z,996.70
2022-09-23T04:20:04.872Z,996.71
2022-09-23T04:21:04.894Z,996.74
2022-09-23T04:22:05.335Z,996.72
2022-09-23T04:23:04.851Z,996.75
2022-09-23T04:24:04.843Z,996.70
2022-09-23T04:25:04.904Z,996.67
2022-09-23T04:26:04.838Z,996.67
2022-09-23T04:27:04.819Z,996.63
2022-09-23T04:28:04.838Z,996.64
2022-09-23T04:29:04.808Z,996.69
2022-09-23T04:30:05.051Z,996.66
2022-09-23T04:31:04.837Z,996.66
2022-09-23T04:32:04.801Z,996.66
2022-09-23T04:33:04.941Z,996.63
2022-09-23T04:34:04.804Z,996.67
2022-09-23T04:35:04.791Z,996.66
2022-09-23T04:36:05.043Z,996.63
2022-09-23T04:37:04.786Z,996.69
2022-09-23T04:38:04.771Z,996.68
2022-09-23T04:39:04.740Z,996.71
2022-09-23T04:40:04.841Z,996.68
2022-09-23T04:41:04.731Z,996.62
2022-09-23T04:42:04.729Z,996.68
2022-09-23T04:43:04.760Z,996.70
2022-09-23T04:44:04.715Z,996.66
2022-09-23T04:45:04.719Z,996.63
2022-09-23T04:46:04.948Z,996.68
2022-09-23T04:47:04.778Z,996.71
2022-09-23T04:48:04.705Z,996.65
2022-09-23T04:49:04.705Z,996.68
2022-09-23T04:50:04.669Z,996.68
2022-09-23T04:51:04.672Z,996.65
2022-09-23T04:52:05.121Z,996.69
2022-09-23T04:53:04.674Z,996.71
2022-09-23T04:54:04.667Z,996.63
2022-09-23T04:55:09.135Z,996.68
2022-09-23T04:56:05.650Z,996.67
2022-09-23T04:57:04.626Z,996.69
2022-09-23T04:58:04.645Z,996.64
2022-09-23T04:59:04.647Z,996.63
2022-09-23T05:00:04.628Z,996.65
2022-09-23T05:01:05.479Z,996.64
2022-09-23T05:02:05.123Z,996.63
2022-09-23T05:03:04.597Z,996.65
2022-09-23T05:04:04.577Z,996.64
2022-09-23T05:05:04.588Z,996.64
2022-09-23T05:06:04.568Z,996.67
2022-09-23T05:07:04.551Z,996.70
2022-09-23T05:08:04.569Z,996.62
2022-09-23T05:09:04.562Z,996.63
2022-09-23T05:10:05.224Z,996.70
2022-09-23T05:11:04.532Z,996.67
2022-09-23T05:12:05.531Z,996.68
2022-09-23T05:13:04.520Z,996.72
2022-09-23T05:14:04.517Z,996.67
2022-09-23T05:15:04.529Z,996.69
2022-09-23T05:16:04.604Z,996.63
2022-09-23T05:17:05.835Z,996.67
2022-09-23T05:18:04.505Z,996.59
2022-09-23T05:19:04.476Z,996.63
2022-09-23T05:20:04.482Z,996.61
2022-09-23T05:21:04.473Z,996.60
2022-09-23T05:22:04.475Z,996.59
2022-09-23T05:23:04.508Z,996.59
2022-09-23T05:24:04.600Z,996.56
2022-09-23T05:25:04.469Z,996.56
2022-09-23T05:26:04.430Z,996.58
2022-09-23T05:27:04.430Z,996.59
2022-09-23T05:28:04.418Z,996.62
2022-09-23T05:29:04.458Z,996.60
2022-09-23T05:30:04.439Z,996.58
2022-09-23T05:31:04.502Z,996.57
2022-09-23T05:32:04.526Z,996.59
2022-09-23T05:33:04.394Z,996.55
2022-09-23T05:34:04.380Z,996.61
2022-09-23T05:35:04.386Z,996.56
2022-09-23T05:36:04.369Z,996.60
2022-09-23T05:37:04.363Z,996.57
2022-09-23T05:38:04.373Z,996.57
2022-09-23T05:39:04.354Z,996.56
2022-09-23T05:40:04.434Z,996.48
2022-09-23T05:41:04.359Z,996.50
2022-09-23T05:42:04.378Z,996.53
2022-09-23T05:43:04.327Z,996.55
2022-09-23T05:44:04.334Z,996.52
2022-09-23T05:45:04.317Z,996.56
2022-09-23T05:46:08.006Z,996.58
2022-09-23T05:47:04.352Z,996.60
2022-09-23T05:48:04.314Z,996.61
2022-09-23T05:49:04.536Z,996.57
2022-09-23T05:50:04.914Z,996.61
2022-09-23T05:51:04.328Z,996.64
2022-09-23T05:52:04.275Z,996.65
2022-09-23T05:53:04.264Z,996.67
2022-09-23T05:54:04.541Z,996.71
2022-09-23T05:55:04.329Z,996.68
2022-09-23T05:57:05.084Z,996.76
2022-09-23T05:58:04.633Z,996.77
2022-09-23T05:59:04.224Z,996.67
2022-09-23T06:00:04.206Z,996.77
2022-09-23T06:01:04.209Z,996.79
2022-09-23T06:02:04.289Z,996.72
2022-09-23T06:03:04.238Z,996.75
2022-09-23T06:04:04.203Z,996.78
2022-09-23T06:05:04.184Z,996.79
2022-09-23T06:06:04.189Z,996.79
2022-09-23T06:07:04.194Z,996.80
2022-09-23T06:08:04.172Z,996.83
2022-09-23T06:09:04.869Z,996.84
2022-09-23T06:10:04.168Z,996.86
2022-09-23T06:11:04.142Z,996.83
2022-09-23T06:12:04.134Z,996.88
2022-09-23T06:13:04.168Z,996.90
2022-09-23T06:14:04.294Z,996.86
2022-09-23T06:15:04.139Z,996.88
2022-09-23T06:16:05.390Z,996.84
2022-09-23T06:17:04.095Z,996.89
2022-09-23T06:18:04.144Z,996.87
2022-09-23T06:19:05.601Z,996.93
2022-09-23T06:20:04.082Z,996.82
2022-09-23T06:21:04.074Z,996.89
2022-09-23T06:22:04.087Z,996.86
2022-09-23T06:23:07.265Z,996.81
2022-09-23T06:24:05.257Z,996.88
2022-09-23T06:25:04.049Z,996.79
2022-09-23T06:26:04.149Z,996.82
2022-09-23T06:27:04.049Z,996.74
2022-09-23T06:28:04.066Z,996.73
2022-09-23T06:29:04.039Z,996.74
2022-09-23T06:30:04.020Z,996.71
2022-09-23T06:31:04.055Z,996.71
2022-09-23T06:32:04.422Z,996.71
2022-09-23T06:33:03.998Z,996.71
2022-09-23T06:34:11.817Z,996.64
2022-09-23T06:35:05.013Z,996.75
2022-09-23T06:36:03.971Z,996.71
2022-09-23T06:37:16.271Z,996.68
2022-09-23T06:38:04.952Z,996.70
2022-09-23T06:39:03.945Z,996.68
2022-09-23T06:40:04.038Z,996.63
2022-09-23T06:41:03.934Z,996.65
2022-09-23T06:42:03.920Z,996.65
2022-09-23T06:43:03.976Z,996.62
2022-09-23T06:44:03.915Z,996.62
2022-09-23T06:45:03.947Z,996.61
2022-09-23T06:46:04.112Z,996.60
2022-09-23T06:47:03.917Z,996.57
2022-09-23T06:48:03.903Z,996.61
2022-09-23T06:49:03.919Z,996.53
2022-09-23T06:50:03.878Z,996.51
2022-09-23T06:51:03.858Z,996.56
2022-09-23T06:52:03.860Z,996.54
2022-09-23T06:53:03.853Z,996.49
2022-09-23T06:54:03.842Z,996.55
2022-09-23T06:55:03.851Z,996.48
2022-09-23T06:56:03.822Z,996.51
2022-09-23T06:57:03.817Z,996.41
2022-09-23T06:58:03.816Z,996.41
2022-09-23T06:59:03.830Z,996.49
2022-09-23T07:00:03.797Z,996.42
2022-09-23T07:01:03.834Z,996.45
2022-09-23T07:02:03.884Z,996.41
2022-09-23T07:03:03.864Z,996.46
2022-09-23T07:04:03.777Z,996.47
2022-09-23T07:05:03.821Z,996.46
2022-09-23T07:06:03.761Z,996.43
2022-09-23T07:07:03.815Z,996.47
2022-09-23T07:08:03.746Z,996.47
2022-09-23T07:09:03.733Z,996.45
2022-09-23T07:10:03.732Z,996.37
2022-09-23T07:11:03.739Z,996.43
2022-09-23T07:12:03.730Z,996.40
2022-09-23T07:13:03.730Z,996.35
2022-09-23T07:14:03.701Z,996.33
2022-09-23T07:15:03.701Z,996.35
2022-09-23T07:16:04.178Z,996.31
2022-09-23T07:17:03.706Z,996.37
2022-09-23T07:18:03.690Z,996.29
2022-09-23T07:19:03.673Z,996.31
2022-09-23T07:20:03.683Z,996.29
2022-09-23T07:21:03.661Z,996.27
2022-09-23T07:22:03.709Z,996.33
2022-09-23T07:23:03.644Z,996.32
2022-09-23T07:24:03.642Z,996.30
2022-09-23T07:25:03.632Z,996.25
2022-09-23T07:26:03.644Z,996.25
2022-09-23T07:27:03.614Z,996.31
2022-09-23T07:28:03.640Z,996.26
2022-09-23T07:29:03.605Z,996.24
2022-09-23T07:30:03.658Z,996.23
2022-09-23T07:31:03.627Z,996.19
2022-09-23T07:32:13.319Z,996.22
2022-09-23T07:33:14.645Z,996.21
2022-09-23T07:34:04.659Z,996.24
2022-09-23T07:35:03.579Z,996.24
2022-09-23T07:36:03.549Z,996.25
2022-09-23T07:37:03.704Z,996.21
2022-09-23T07:38:03.544Z,996.28
2022-09-23T07:39:03.595Z,996.25
2022-09-23T07:40:03.648Z,996.31
2022-09-23T07:41:03.515Z,996.25
2022-09-23T07:42:03.562Z,996.29
2022-09-23T07:43:03.506Z,996.29
2022-09-23T07:44:03.506Z,996.29
2022-09-23T07:45:03.478Z,996.28
2022-09-23T07:46:03.622Z,996.28
2022-09-23T07:47:03.501Z,996.33
2022-09-23T07:48:03.459Z,996.30
2022-09-23T07:49:03.475Z,996.34
2022-09-23T07:50:03.456Z,996.24
2022-09-23T07:51:03.433Z,996.31
2022-09-23T07:52:03.765Z,996.34
2022-09-23T07:53:03.435Z,996.26
2022-09-23T07:54:03.428Z,996.26
2022-09-23T07:55:03.420Z,996.20
2022-09-23T07:56:03.412Z,996.19
2022-09-23T07:57:03.414Z,996.20
2022-09-23T07:58:03.402Z,996.24
2022-09-23T07:59:03.494Z,996.16
2022-09-23T08:00:03.384Z,996.19
2022-09-23T08:01:03.380Z,996.22
2022-09-23T08:02:03.420Z,996.19
2022-09-23T08:03:03.441Z,996.13
2022-09-23T08:04:03.373Z,996.05
2022-09-23T08:05:03.486Z,996.10
2022-09-23T08:06:03.340Z,996.10
2022-09-23T08:07:03.395Z,996.10
2022-09-23T08:08:03.317Z,996.11
2022-09-23T08:09:03.393Z,996.07
2022-09-23T08:10:03.327Z,996.07
2022-09-23T08:11:10.360Z,996.13
2022-09-23T08:12:03.298Z,996.15
2022-09-23T08:13:03.336Z,996.16
2022-09-23T08:14:03.300Z,996.22
2022-09-23T08:15:03.277Z,996.20
2022-09-23T08:16:03.351Z,996.21
2022-09-23T08:17:03.264Z,996.19
2022-09-23T08:18:03.265Z,996.17
2022-09-23T08:20:03.247Z,996.16
2022-09-23T08:21:03.268Z,996.13
2022-09-23T08:22:03.244Z,996.19
2022-09-23T08:23:03.464Z,996.12
2022-09-23T08:24:03.353Z,996.10
2022-09-23T08:25:03.711Z,996.09
2022-09-23T08:26:03.206Z,996.17
2022-09-23T08:27:03.193Z,996.21
2022-09-23T08:28:03.240Z,996.16
2022-09-23T08:29:03.184Z,996.18
2022-09-23T08:30:03.172Z,996.12
2022-09-23T08:31:03.315Z,996.10
2022-09-23T08:32:03.162Z,996.07
2022-09-23T08:33:03.163Z,996.12
2022-09-23T08:34:03.308Z,996.06
2022-09-23T08:35:03.176Z,996.03
2022-09-23T08:36:03.575Z,996.04
2022-09-23T08:37:03.192Z,996.03
2022-09-23T08:38:03.180Z,995.99
2022-09-23T08:39:03.115Z,995.97
2022-09-23T08:40:03.110Z,995.94
2022-09-23T08:41:03.132Z,995.92
2022-09-23T08:42:03.087Z,995.92
2022-09-23T08:43:03.091Z,995.91
2022-09-23T08:44:03.215Z,995.88
2022-09-23T08:45:03.081Z,995.89
2022-09-23T08:46:03.117Z,995.92
2022-09-23T08:47:03.094Z,995.99
2022-09-23T08:48:03.054Z,995.84
2022-09-23T08:49:03.060Z,995.87
2022-09-23T08:50:03.087Z,995.90
2022-09-23T08:51:03.033Z,995.82
2022-09-23T08:52:03.057Z,995.78
2022-09-23T08:53:03.048Z,995.82
2022-09-23T08:54:03.102Z,995.79
2022-09-23T08:55:03.014Z,995.76
2022-09-23T08:56:03.000Z,995.79
2022-09-23T08:57:03.019Z,995.81
2022-09-23T08:58:26.759Z,995.85
2022-09-23T08:59:03.985Z,995.90
2022-09-23T09:00:02.985Z,995.95
2022-09-23T09:01:03.013Z,995.82
2022-09-23T09:02:02.970Z,995.86
2022-09-23T09:03:02.991Z,995.84
2022-09-23T09:04:23.954Z,995.70
2022-09-23T09:05:02.943Z,995.78
2022-09-23T09:06:02.960Z,995.78
2022-09-23T09:07:24.676Z,995.77
2022-09-23T09:08:04.005Z,995.75
2022-09-23T09:09:03.018Z,995.80
2022-09-23T09:10:02.914Z,995.83
2022-09-23T09:11:02.903Z,995.71
2022-09-23T09:12:03.329Z,995.74
2022-09-23T09:13:02.890Z,995.69
2022-09-23T09:14:02.910Z,995.66
2022-09-23T09:15:02.886Z,995.66
2022-09-23T09:16:02.926Z,995.71
2022-09-23T09:17:02.941Z,995.74
2022-09-23T09:18:02.887Z,995.69
2022-09-23T09:19:02.911Z,995.69
2022-09-23T09:20:02.859Z,995.63
2022-09-23T09:21:03.175Z,995.59
2022-09-23T09:22:02.824Z,995.64
2022-09-23T09:23:02.825Z,995.64
2022-09-23T09:24:02.938Z,995.66
2022-09-23T09:25:02.945Z,995.66
2022-09-23T09:26:02.805Z,995.63
2022-09-23T09:27:02.795Z,995.60
2022-09-23T09:28:02.837Z,995.59
2022-09-23T09:29:17.159Z,995.59
2022-09-23T09:30:03.780Z,995.60
2022-09-23T09:31:02.933Z,995.61
2022-09-23T09:32:02.763Z,995.53
2022-09-23T09:33:02.771Z,995.54
2022-09-23T09:34:02.788Z,995.60
2022-09-23T09:35:02.751Z,995.63
2022-09-23T09:36:02.727Z,995.64
2022-09-23T09:37:06.845Z,995.58
2022-09-23T09:38:02.810Z,995.56
2022-09-23T09:39:03.052Z,995.55
2022-09-23T09:40:02.710Z,995.53
2022-09-23T09:41:02.920Z,995.61
2022-09-23T09:42:02.687Z,995.54
2022-09-23T09:43:02.692Z,995.53
2022-09-23T09:44:02.740Z,995.57
2022-09-23T09:45:02.676Z,995.48
2022-09-23T09:46:02.660Z,995.48
2022-09-23T09:47:03.622Z,995.36
2022-09-23T09:48:02.697Z,995.43
2022-09-23T09:49:02.761Z,995.45
2022-09-23T09:50:02.628Z,995.45
2022-09-23T09:51:02.626Z,995.41
2022-09-23T09:52:02.777Z,995.37
2022-09-23T09:53:02.585Z,995.32
2022-09-23T09:54:02.559Z,995.39
2022-09-23T09:55:02.596Z,995.36
2022-09-23T09:56:05.310Z,995.34
2022-09-23T09:57:02.562Z,995.33
2022-09-23T09:58:02.607Z,995.32
2022-09-23T09:59:02.572Z,995.23
2022-09-23T10:00:02.797Z,995.36
2022-09-23T10:01:02.550Z,995.24
2022-09-23T10:02:02.484Z,995.26
2022-09-23T10:03:02.478Z,995.30
2022-09-23T10:04:02.464Z,995.23
2022-09-23T10:05:02.470Z,995.26
2022-09-23T10:06:03.099Z,995.27
2022-09-23T10:07:02.440Z,995.27
2022-09-23T10:08:02.449Z,995.24
2022-09-23T10:09:02.479Z,995.24
2022-09-23T10:10:15.915Z,995.26
2022-09-23T10:11:04.799Z,995.21
2022-09-23T10:12:02.415Z,995.18
2022-09-23T10:13:02.430Z,995.23
2022-09-23T10:14:02.396Z,995.26
2022-09-23T10:15:02.420Z,995.24
2022-09-23T10:16:02.378Z,995.17
2022-09-23T10:17:03.129Z,995.19
2022-09-23T10:18:02.382Z,995.08
2022-09-23T10:19:02.412Z,995.10
2022-09-23T10:20:02.365Z,995.07
2022-09-23T10:21:02.354Z,995.12
2022-09-23T10:22:02.343Z,995.07
2022-09-23T10:23:02.372Z,995.08
2022-09-23T10:24:02.325Z,995.08
2022-09-23T10:25:02.330Z,995.14
2022-09-23T10:26:02.320Z,995.11
2022-09-23T10:27:02.307Z,995.08
2022-09-23T10:28:06.080Z,995.01
2022-09-23T10:29:04.416Z,994.88
2022-09-23T10:30:02.288Z,994.95
2022-09-23T10:31:02.363Z,994.88
2022-09-23T10:32:02.275Z,994.94
2022-09-23T10:33:02.276Z,994.92
2022-09-23T10:34:02.267Z,994.89
2022-09-23T10:35:02.901Z,994.86
2022-09-23T10:36:02.276Z,994.81
2022-09-23T10:37:02.237Z,994.88
2022-09-23T10:38:02.246Z,994.87
2022-09-23T10:39:02.364Z,994.88
2022-09-23T10:40:02.222Z,994.85
2022-09-23T10:41:03.070Z,994.84
2022-09-23T10:42:02.218Z,994.76
2022-09-23T10:43:02.205Z,994.79
2022-09-23T10:44:02.195Z,994.78
2022-09-23T10:45:02.258Z,994.81
2022-09-23T10:46:02.247Z,994.70
2022-09-23T10:47:02.605Z,994.76
2022-09-23T10:48:02.167Z,994.76
2022-09-23T10:49:02.158Z,994.71
2022-09-23T10:50:02.148Z,994.76
2022-09-23T10:51:02.149Z,994.70
2022-09-23T10:52:02.403Z,994.67
2022-09-23T10:53:02.141Z,994.76
2022-09-23T10:54:02.133Z,994.73
2022-09-23T10:55:02.122Z,994.73
2022-09-23T10:56:02.109Z,994.80
2022-09-23T10:57:02.136Z,994.73
2022-09-23T10:58:02.132Z,994.71
2022-09-23T10:59:02.113Z,994.63
2022-09-23T11:00:02.089Z,994.57
2022-09-23T11:01:02.143Z,994.62
2022-09-23T11:02:02.121Z,994.60
2022-09-23T11:03:02.957Z,994.62
2022-09-23T11:04:02.181Z,994.56
2022-09-23T11:05:02.110Z,994.58
2022-09-23T11:06:02.848Z,994.62
2022-09-23T11:07:02.027Z,994.55
2022-09-23T11:08:02.028Z,994.58
2022-09-23T11:09:02.013Z,994.57
2022-09-23T11:10:02.030Z,994.47
2022-09-23T11:11:02.011Z,994.45
2022-09-23T11:12:02.013Z,994.61
2022-09-23T11:13:01.986Z,994.55
2022-09-23T11:14:02.019Z,994.49
2022-09-23T11:15:02.013Z,994.52
2022-09-23T11:16:02.091Z,994.55
2022-09-23T11:17:02.043Z,994.45
2022-09-23T11:18:02.959Z,994.41
2022-09-23T11:19:01.973Z,994.48
2022-09-23T11:20:01.941Z,994.40
2022-09-23T11:21:02.607Z,994.39
2022-09-23T11:22:02.404Z,994.40
2022-09-23T11:23:01.923Z,994.32
2022-09-23T11:24:02.018Z,994.31
2022-09-23T11:25:01.912Z,994.31
2022-09-23T11:26:01.901Z,994.31
2022-09-23T11:27:01.909Z,994.23
2022-09-23T11:28:01.890Z,994.20
2022-09-23T11:29:02.157Z,994.22
2022-09-23T11:30:01.870Z,994.24
2022-09-23T11:31:02.544Z,994.25
2022-09-23T11:32:01.871Z,994.23
2022-09-23T11:34:01.858Z,994.28
2022-09-23T11:35:01.850Z,994.26
2022-09-23T11:36:01.839Z,994.20
2022-09-23T11:37:01.838Z,994.18
2022-09-23T11:38:01.864Z,994.19
2022-09-23T11:39:02.260Z,994.11
2022-09-23T11:40:01.809Z,994.07
2022-09-23T11:41:01.873Z,994.06
2022-09-23T11:42:01.801Z,994.13
2022-09-23T11:43:01.826Z,994.05
2022-09-23T11:44:01.837Z,994.08
2022-09-23T11:45:02.014Z,994.03
2022-09-23T11:46:01.829Z,994.08
2022-09-23T11:47:01.775Z,994.04
2022-09-23T11:48:02.030Z,993.99
2022-09-23T11:49:01.779Z,994.06
2022-09-23T11:50:01.758Z,993.91
2022-09-23T11:51:01.751Z,993.97
2022-09-23T11:52:01.757Z,993.90
2022-09-23T11:53:01.727Z,993.93
2022-09-23T11:54:02.530Z,993.93
2022-09-23T11:55:04.758Z,993.97
2022-09-23T11:56:02.718Z,993.90
2022-09-23T11:57:01.701Z,993.98
2022-09-23T11:58:01.810Z,993.95
2022-09-23T11:59:01.763Z,993.91
2022-09-23T12:00:01.727Z,993.94
2022-09-23T12:01:01.739Z,993.92
2022-09-23T12:02:13.073Z,994.02
2022-09-23T12:03:05.995Z,993.96
2022-09-23T12:04:13.498Z,993.98
2022-09-23T12:05:03.807Z,993.94
2022-09-23T12:06:01.820Z,993.98
2022-09-23T12:07:01.667Z,994.00
2022-09-23T12:08:01.632Z,993.95
2022-09-23T12:09:01.631Z,993.93
2022-09-23T12:10:01.631Z,993.84
2022-09-23T12:11:01.779Z,993.80
2022-09-23T12:12:01.603Z,993.86
2022-09-23T12:13:01.592Z,993.85
2022-09-23T12:14:01.590Z,993.87
2022-09-23T12:15:01.613Z,993.81
2022-09-23T12:16:01.573Z,993.80
2022-09-23T12:17:01.685Z,993.74
2022-09-23T12:18:01.559Z,993.64
2022-09-23T12:19:01.549Z,993.74
2022-09-23T12:20:01.566Z,993.74
2022-09-23T12:21:02.000Z,993.74
2022-09-23T12:22:01.528Z,993.65
2022-09-23T12:23:01.530Z,993.69
2022-09-23T12:24:01.513Z,993.70
2022-09-23T12:25:01.510Z,993.67
2022-09-23T12:26:01.521Z,993.61
2022-09-23T12:27:01.518Z,993.59
2022-09-23T12:28:01.492Z,993.68
2022-09-23T12:29:01.483Z,993.64
2022-09-23T12:30:01.474Z,993.60
2022-09-23T12:31:01.576Z,993.57